createdAt,value
2018-12-24T08:05:20.087Z,4.73
2018-12-24T08:07:53.892Z,4.83
2018-12-24T08:10:27.393Z,4.30
2018-12-24T08:13:01.152Z,4.17
2018-12-24T08:15:34.570Z,3.90
2018-12-24T08:18:07.772Z,4.30
2018-12-24T08:20:41.491Z,4.60
2018-12-24T08:23:16.166Z,5.13
2018-12-24T08:25:49.809Z,4.50
2018-12-24T08:28:23.345Z,4.43
2018-12-24T08:30:56.954Z,4.30
2018-12-24T08:33:30.260Z,3.43
2018-12-24T08:36:04.053Z,3.70
2018-12-24T08:38:37.892Z,4.67
2018-12-24T08:41:11.627Z,4.80
2018-12-24T08:43:44.723Z,4.27
2018-12-24T08:46:18.281Z,5.13
2018-12-24T08:48:51.678Z,5.00
2018-12-24T08:51:25.382Z,5.03
2018-12-24T08:53:58.902Z,5.23
2018-12-24T08:56:32.724Z,5.13
2018-12-24T08:59:06.160Z,5.00
2018-12-24T09:01:39.697Z,4.67
2018-12-24T09:04:13.203Z,4.63
2018-12-24T09:06:46.984Z,5.10
2018-12-24T09:09:20.633Z,4.93
2018-12-24T09:11:53.991Z,4.87
2018-12-24T09:14:27.672Z,4.77
2018-12-24T09:17:00.921Z,4.57
2018-12-24T09:19:34.899Z,5.10
2018-12-24T09:22:08.592Z,5.70
2018-12-24T09:24:42.112Z,4.90
2018-12-24T09:27:15.777Z,5.83
2018-12-24T09:29:49.366Z,6.00
2018-12-24T09:32:23.124Z,6.27
2018-12-24T09:34:56.558Z,5.70
2018-12-24T09:37:30.191Z,6.03
2018-12-24T09:40:03.969Z,6.00
2018-12-24T09:42:37.934Z,6.53
2018-12-24T09:45:11.583Z,7.80
2018-12-24T09:47:45.261Z,7.73
2018-12-24T09:50:18.540Z,6.90
2018-12-24T09:52:51.773Z,8.37
2018-12-24T09:55:25.353Z,7.50
2018-12-24T09:57:58.600Z,7.07
2018-12-24T10:00:32.299Z,7.10
2018-12-24T10:03:16.137Z,7.03
2018-12-24T10:05:50.229Z,6.47
2018-12-24T10:08:25.615Z,5.33
2018-12-24T10:10:59.264Z,6.13
2018-12-24T10:13:32.523Z,5.10
2018-12-24T10:16:06.098Z,4.87
2018-12-24T10:18:39.795Z,5.20
2018-12-24T10:21:13.286Z,4.60
2018-12-24T10:23:46.593Z,5.43
2018-12-24T10:26:20.217Z,5.87
2018-12-24T10:28:53.922Z,5.70
2018-12-24T10:31:27.587Z,5.70
2018-12-24T10:34:00.927Z,5.03
2018-12-24T10:36:34.938Z,5.67
2018-12-24T10:39:10.025Z,5.50
2018-12-24T10:41:43.903Z,6.10
2018-12-24T10:44:17.547Z,5.70
2018-12-24T10:46:51.152Z,6.00
2018-12-24T10:49:24.426Z,5.50
2018-12-24T10:51:57.708Z,5.60
2018-12-24T10:54:30.690Z,6.53
2018-12-24T10:57:04.519Z,6.67
2018-12-24T10:59:38.247Z,5.87
2018-12-24T11:02:11.769Z,6.37
2018-12-24T11:04:45.376Z,5.60
2018-12-24T11:07:18.910Z,5.30
2018-12-24T11:09:53.849Z,6.03
2018-12-24T11:12:28.069Z,5.93
2018-12-24T11:15:01.663Z,5.33
2018-12-24T11:17:35.604Z,5.40
2018-12-24T11:20:09.225Z,6.17
2018-12-24T11:22:44.101Z,5.23
2018-12-24T11:25:16.915Z,4.97
2018-12-24T11:27:50.501Z,5.47
2018-12-24T11:30:24.138Z,5.50
2018-12-24T11:32:57.785Z,5.57
2018-12-24T11:35:31.432Z,5.50
2018-12-24T11:38:05.056Z,6.87
2018-12-24T11:40:38.399Z,6.20
2018-12-24T11:43:12.197Z,6.50
2018-12-24T11:45:45.945Z,6.97
2018-12-24T11:48:19.331Z,6.30
2018-12-24T11:50:52.883Z,5.80
2018-12-24T11:53:26.374Z,6.00
2018-12-24T11:56:00.009Z,5.60
2018-12-24T11:58:33.455Z,5.60
2018-12-24T12:01:07.269Z,5.80
2018-12-24T12:03:41.143Z,6.67
2018-12-24T12:06:19.671Z,6.10
2018-12-24T12:08:49.613Z,5.97
2018-12-24T12:11:23.014Z,6.47
2018-12-24T12:13:56.519Z,6.07
2018-12-24T12:16:31.792Z,5.60
2018-12-24T12:19:05.577Z,5.27
2018-12-24T12:21:39.307Z,5.80
2018-12-24T12:24:12.852Z,5.80
2018-12-24T12:26:46.211Z,5.73
2018-12-24T12:29:19.776Z,6.57
2018-12-24T12:31:53.381Z,6.40
2018-12-24T12:34:26.986Z,6.03
2018-12-24T12:37:00.582Z,6.50
2018-12-24T12:39:34.107Z,6.93
2018-12-24T12:42:07.661Z,6.13
2018-12-24T12:44:41.334Z,5.73
2018-12-24T12:47:14.603Z,6.07
2018-12-24T12:49:48.248Z,6.27
2018-12-24T12:52:21.946Z,6.00
2018-12-24T12:54:55.691Z,5.87
2018-12-24T12:57:30.013Z,5.93
2018-12-24T13:00:04.274Z,7.30
2018-12-24T13:02:37.959Z,6.43
2018-12-24T13:05:11.679Z,5.80
2018-12-24T13:07:45.264Z,6.13
2018-12-24T13:10:18.891Z,7.53
2018-12-24T13:12:52.641Z,6.17
2018-12-24T13:15:25.824Z,6.80
2018-12-24T13:17:59.354Z,7.47
2018-12-24T13:20:32.986Z,7.87
2018-12-24T13:23:06.745Z,7.77
2018-12-24T13:25:40.258Z,8.03
2018-12-24T13:28:13.999Z,9.00
2018-12-24T13:30:47.396Z,9.57
2018-12-24T13:33:21.079Z,8.77
2018-12-24T13:35:55.271Z,8.00
2018-12-24T13:38:28.311Z,9.00
2018-12-24T13:41:04.253Z,7.77
2018-12-24T13:43:37.995Z,8.27
2018-12-24T13:46:13.876Z,8.73
2018-12-24T13:48:50.656Z,8.63
2018-12-24T13:51:44.146Z,7.80
2018-12-24T13:54:27.873Z,8.20
2018-12-24T13:57:01.653Z,7.47
2018-12-24T14:28:35.393Z,7.93
2018-12-24T14:31:09.090Z,7.40
2018-12-24T14:33:43.940Z,7.17
2018-12-24T14:36:18.245Z,8.47
2018-12-24T14:38:51.727Z,8.93
2018-12-24T14:41:25.557Z,8.53
2018-12-24T14:43:59.268Z,8.13
2018-12-24T14:46:32.925Z,9.87
2018-12-24T14:49:06.582Z,9.07
2018-12-24T14:51:39.969Z,8.00
2018-12-24T14:54:13.325Z,8.83
2018-12-24T14:56:47.385Z,9.13
2018-12-24T14:59:21.046Z,8.53
2018-12-24T15:01:54.657Z,7.77
2018-12-24T15:04:27.922Z,7.93
2018-12-24T15:07:01.320Z,8.60
2018-12-24T15:09:34.667Z,7.90
2018-12-24T15:12:08.186Z,8.80
2018-12-24T15:14:41.952Z,8.40
2018-12-24T15:17:15.609Z,7.73
2018-12-24T15:19:49.246Z,7.57
2018-12-24T15:22:23.110Z,7.83
2018-12-24T18:42:12.196Z,13.70
2018-12-24T18:44:45.971Z,16.17
2018-12-24T18:47:19.719Z,17.27
2018-12-24T18:49:53.924Z,12.37
2018-12-24T18:52:27.360Z,11.33
2018-12-24T18:55:01.001Z,11.20
2018-12-24T18:57:34.559Z,8.97
2018-12-24T19:00:09.463Z,8.10
2018-12-24T19:02:43.270Z,8.40
2018-12-24T19:05:15.791Z,8.07
2018-12-24T19:07:48.940Z,8.67
2018-12-24T19:10:22.373Z,8.30
2018-12-24T19:12:56.506Z,7.80
2018-12-24T19:15:30.395Z,7.53
2018-12-24T19:18:04.617Z,6.67
2018-12-24T19:20:38.182Z,6.73
2018-12-24T19:23:12.013Z,6.67
2018-12-24T19:25:45.544Z,6.90
2018-12-24T19:28:19.301Z,6.87
2018-12-24T19:30:52.934Z,5.77
2018-12-24T19:33:26.286Z,6.00
2018-12-24T19:35:59.598Z,5.07
2018-12-24T19:38:33.371Z,5.50
2018-12-24T19:41:07.051Z,6.00
2018-12-24T19:43:41.017Z,5.60
2018-12-24T19:46:14.667Z,6.20
2018-12-24T19:48:48.359Z,6.07
2018-12-24T19:51:22.029Z,6.00
2018-12-24T19:53:55.826Z,5.00
2018-12-24T19:56:29.456Z,5.67
2018-12-24T19:59:03.159Z,6.10
2018-12-24T20:01:36.794Z,4.93
2018-12-24T20:04:10.515Z,5.13
2018-12-24T20:06:44.105Z,5.40
2018-12-24T20:09:17.818Z,5.67
2018-12-24T20:11:53.012Z,5.30
2018-12-24T20:14:26.707Z,5.97
2018-12-24T20:17:00.298Z,6.53
2018-12-24T20:19:34.136Z,7.17
2018-12-24T20:22:07.662Z,6.47
2018-12-24T20:24:41.174Z,7.30
2018-12-24T20:27:14.697Z,7.07
2018-12-24T20:29:48.348Z,7.70
2018-12-24T20:32:23.290Z,7.77
2018-12-24T20:34:59.300Z,8.40
2018-12-24T20:37:35.003Z,7.77
2018-12-24T20:40:07.634Z,7.70
2018-12-24T20:42:43.062Z,8.40
2018-12-24T20:45:17.176Z,7.70
2018-12-24T20:47:50.730Z,7.80
2018-12-24T20:50:24.217Z,7.10
2018-12-24T20:52:57.948Z,6.90
2018-12-24T20:55:31.602Z,7.90
2018-12-24T20:58:05.169Z,7.17
2018-12-24T21:00:38.511Z,7.07
2018-12-24T21:03:11.897Z,7.00
2018-12-24T21:05:45.278Z,7.10
2018-12-24T21:08:18.927Z,6.47
2018-12-24T21:10:53.461Z,8.23
2018-12-24T21:13:26.860Z,8.47
2018-12-24T21:16:00.578Z,7.63
2018-12-24T21:18:34.096Z,8.53
2018-12-24T21:21:07.553Z,7.47
2018-12-24T21:23:40.230Z,7.83
2018-12-24T21:26:13.955Z,7.87
2018-12-24T21:28:47.437Z,7.80
2018-12-24T21:31:22.342Z,7.60
2018-12-24T21:33:56.072Z,8.23
2018-12-24T21:36:29.770Z,9.90
2018-12-24T21:39:04.011Z,15.20
2018-12-24T21:41:38.420Z,25.40
2018-12-24T21:44:12.381Z,25.47
2018-12-24T21:46:46.771Z,23.73
2018-12-24T21:49:20.407Z,25.53
2018-12-24T21:51:54.074Z,28.63
2018-12-24T21:54:27.859Z,27.73
2018-12-24T21:57:02.227Z,27.20
2018-12-24T21:59:36.544Z,30.90
2018-12-24T22:02:09.530Z,28.20
2018-12-24T22:04:43.203Z,26.77
2018-12-24T22:07:16.893Z,24.27
2018-12-24T22:09:50.321Z,22.73
2018-12-24T22:12:23.935Z,21.43
2018-12-24T22:14:57.627Z,19.83
2018-12-24T22:17:31.220Z,20.73
2018-12-24T22:20:04.278Z,20.77
2018-12-24T22:22:38.860Z,21.27
2018-12-24T22:25:12.726Z,23.33
2018-12-24T22:27:46.425Z,23.03
2018-12-24T22:30:20.075Z,21.57
2018-12-24T22:32:53.858Z,22.47
2018-12-24T22:35:27.361Z,20.77
2018-12-24T22:38:01.090Z,19.27
2018-12-24T22:40:34.645Z,19.83
2018-12-24T22:43:08.332Z,21.17
2018-12-24T22:45:42.094Z,25.67
2018-12-24T22:48:15.791Z,26.57
2018-12-24T22:50:49.484Z,28.73
2018-12-24T22:53:23.051Z,30.53
2018-12-24T22:55:57.830Z,27.07
2018-12-24T22:58:31.216Z,29.87
2018-12-24T23:01:04.326Z,28.50
2018-12-24T23:03:37.818Z,28.43
2018-12-24T23:06:11.474Z,33.23
2018-12-24T23:08:45.473Z,32.00
2018-12-24T23:11:19.202Z,33.87
2018-12-24T23:13:53.090Z,33.77
2018-12-24T23:16:28.210Z,31.37
2018-12-24T23:19:04.787Z,32.37
2018-12-24T23:21:37.923Z,29.30
2018-12-24T23:24:11.601Z,30.40
2018-12-24T23:26:46.231Z,25.60
2018-12-24T23:29:20.300Z,24.27
2018-12-24T23:31:55.482Z,24.30
2018-12-24T23:34:28.897Z,22.57
2018-12-24T23:37:02.739Z,20.67
2018-12-24T23:39:36.444Z,21.50
2018-12-24T23:42:10.014Z,20.97
2018-12-24T23:44:43.839Z,20.53
2018-12-24T23:47:17.492Z,19.53
2018-12-24T23:49:52.257Z,19.33
2018-12-24T23:52:26.158Z,18.03
2018-12-24T23:55:01.863Z,18.20
2018-12-24T23:57:34.541Z,17.87
